Buriti Alegre Airport


Codes: SWBA/0
Name: Buriti Alegre Airport
City: Buriti Alegre
Country: Brazil
Elevation: 2848 ft.

Photos at Buriti Alegre Airport


   Photos courtesy of SpottingLog. You can add your own sightings and photos by signing up for a free trial today.



No photos found.

Weather at Buriti Alegre Airport


Time (UTC)DescriptionTempratureWindCloud coverageVisibilityPressureHumidity
15-Apr-2024 18:00Broken Clouds28°C7 mph, NE78%10000m1012hPa49%
15-Apr-2024 21:00Broken Clouds25°C4 mph, E84%10000m1012hPa61%
16-Apr-2024 00:00Overcast Clouds21°C4 mph, NE93%10000m1015hPa77%
16-Apr-2024 03:00Overcast Clouds22°C4 mph, NE98%10000m1016hPa74%
16-Apr-2024 06:00Broken Clouds19°C4 mph, NE80%10000m1015hPa82%
16-Apr-2024 09:00Broken Clouds19°C4 mph, NE82%10000m1016hPa87%
16-Apr-2024 12:00Broken Clouds24°C11 mph, NE75%10000m1017hPa68%
16-Apr-2024 15:00Broken Clouds28°C9 mph, NE76%10000m1015hPa52%
16-Apr-2024 18:00Broken Clouds30°C4 mph, NE70%10000m1012hPa46%
16-Apr-2024 21:00Overcast Clouds25°C2 mph, NE100%10000m1012hPa63%
17-Apr-2024 00:00Overcast Clouds23°C4 mph, NE100%10000m1015hPa69%
17-Apr-2024 03:00Overcast Clouds21°C2 mph, N93%10000m1015hPa77%
17-Apr-2024 06:00Overcast Clouds21°C4 mph, NE96%10000m1014hPa75%
17-Apr-2024 09:00Overcast Clouds20°C4 mph, NE95%10000m1015hPa80%
17-Apr-2024 12:00Overcast Clouds24°C9 mph, NE91%10000m1016hPa65%
17-Apr-2024 15:00Overcast Clouds29°C7 mph, NE99%10000m1014hPa49%
17-Apr-2024 18:00Overcast Clouds29°C2 mph, NE85%10000m1011hPa51%
17-Apr-2024 21:00Overcast Clouds25°C2 mph, E99%10000m1012hPa62%
18-Apr-2024 00:00Overcast Clouds24°C2 mph, SE99%10000m1013hPa60%
18-Apr-2024 03:00Overcast Clouds23°C2 mph, SE99%10000m1013hPa64%
18-Apr-2024 06:00Overcast Clouds22°C2 mph, E95%10000m1012hPa67%
18-Apr-2024 09:00Overcast Clouds22°C2 mph, E99%10000m1014hPa69%
18-Apr-2024 12:00Overcast Clouds23°C2 mph, E99%10000m1015hPa69%
18-Apr-2024 15:00Broken Clouds29°C2 mph, E76%10000m1014hPa50%
18-Apr-2024 18:00Broken Clouds30°C4 mph, S65%10000m1010hPa42%
18-Apr-2024 21:00Overcast Clouds25°C2 mph, S88%10000m1012hPa62%
19-Apr-2024 00:00Light Rain20°C4 mph, SW94%10000m1014hPa88%
19-Apr-2024 03:00Light Rain20°C2 mph, E100%10000m1014hPa92%
19-Apr-2024 06:00Light Rain19°C2 mph, E100%10000m1013hPa95%
19-Apr-2024 09:00Light Rain19°C2 mph, E100%10000m1014hPa96%
19-Apr-2024 12:00Light Rain22°C7 mph, E100%10000m1015hPa86%
19-Apr-2024 15:00Light Rain28°C7 mph, NE89%10000m1014hPa56%
19-Apr-2024 18:00Light Rain29°C0 mph, SE61%10000m1011hPa50%
19-Apr-2024 21:00Light Rain24°C2 mph, SE84%10000m1012hPa70%
20-Apr-2024 00:00Light Rain21°C2 mph, SE91%3378m1014hPa90%
20-Apr-2024 03:00Moderate Rain19°C4 mph, NE38%10000m1015hPa96%
20-Apr-2024 06:00Light Rain19°C4 mph, E31%10000m1014hPa94%
20-Apr-2024 09:00Scattered Clouds19°C4 mph, E48%10000m1014hPa95%
20-Apr-2024 12:00Broken Clouds21°C7 mph, E64%10000m1016hPa91%
20-Apr-2024 15:00Broken Clouds27°C9 mph, E60%10000m1014hPa57%